Airfield :
LOGIN :

Register | Disclaimer

   EN    FR    IT 

 










Legend :    VFR   Marginal VFR   IFR   Intensive IFR   Very Intensive IFR
Visi :
Ceiling :
>= 8 km
>= 3000ft
5 to 8 km
1000 to 3000 ft
1500m to 5 km
500 to 1000 ft
800 to 1500m
200 to 500 ft
< 800m
< 200 ft
Symbols :   Thunderstorms  Fog  Heavy snow  Heavy precipitations  Wind > 20 kt
SIGMETs :     Misc.  Thunderstorms  Icing  Turbulence  Mountain Waves  Volcanic Ashes







- Airport Elevation : 33 ft
- IATA code : MHZ


EGUN - RAF Mildenhall

CURRENT METAR :
  • 201606Z AUTO 05008KT 9999 -RA SCT020 BKN026 BKN033 BKN043 04/04 A2974 RMK AO2 CIG 021V028 SLP075 $

EXPIRED METARs :
  • 201555Z AUTO 06008KT 9999 -RA BKN025 BKN034 BKN043 04/04 A2974 RMK AO2 RAB07E21RAB50 CIG 025V034 SLP075 $
  • 201541Z AUTO 05009KT 9999 SCT026 BKN034 04/04 A2974 RMK AO2 RAB07E21 SLP075 $
  • 201521Z AUTO 06011KT 9999 SCT015 BKN028 04/04 A2974 RMK AO2 RAB07E21 CIG 015V028 SLP075 $
  • 201507Z AUTO 06012KT 9999 -RA BKN015 BKN023 BKN029 04/04 A2974 RMK AO2 RAB07 BKN015 V SCT SLPNO $
  • 201501Z AUTO 06012KT 9999 BKN015 04/04 A2974 RMK AO2 BKN V SCT SLPNO $
  • 201449Z AUTO 06012G21KT 9999 BKN015 OVC021 04/04 A2974 RMK AO2 RAE49 SLP075 $
  • 201441Z AUTO 07013G21KT 9999 -RA OVC014 04/04 A2974 RMK AO2 SLP075 $
  • 201411Z AUTO 07011G20KT 9999 -RA BKN015 BKN026 04/04 A2975 RMK AO2 CIG 015V025 BKN015 V SCT SLP078 $
  • 201401Z AUTO 07011G20KT 9999 -RA SCT014 BKN021 BKN026 BKN034 BKN041 04/04 A2975 RMK AO2 CIG 021V032 BKN021 V SCT SLP078 $
  • 201348Z AUTO 07014KT 9999 -RA FEW016 SCT030 BKN039 04/04 A2975 RMK AO2 RAE08RAB48 SLP078 $
  • 201338Z AUTO 06011KT 9999 SCT014 BKN032 04/04 A2975 RMK AO2 RAE08 SLP078 $
  • 201308Z AUTO 07013G19KT 9999 BKN016 OVC023 04/04 A2976 RMK AO2 RAE08 SLP081 $
  • 201256Z AUTO 07015G23KT 9999 -RA BKN016 BKN023 05/05 A2976 RMK AO2 RAE02RAB26E41RAB48 SLP081 P0000 T00450045 $

TAF TAF EGUN
Valid from the 20 at 12:00 until the 21 at 18:00 UTC


201200Z 2012/2118 07010G15KT 9000 -RA BKN015 BKN025 QNH2975INS
TEMPO 2012/2016 07015G25KT SCT015
BECMG 2015/2016 09012KT 9000 -RA BKN015 QNH2962INS
TEMPO 2016/2022 09012G20KT
BECMG 2104/2105 12009KT 9999 NSW BKN010 QNH2969INS
BECMG 2112/2113 15009KT 9999 SCT020 QNH2990INS TX06/2112Z TN02/2107Z
No reported NOTAMs for that airfield.
1 SIGMET reported for the London FIR (EGTT) :
 
Severe mountain waves
EGTT SIGMET 02 VALID 201300/201700 EGRR
EGTT LONDON FIR SEV MTW FCST WI N5322 W00134 - N5149 W00328 - N5130 W00504 - N5500 W00447 - N5500 W00220 - N5322 W00134 FL030/120 STNR NC=



MET'MAP, your aeronautical weather chart ! - Copyright ORBIFLY December 2007 - Disclaimer

ORBIFLY MET'MAP TEAM :

Programming & Development : Alexandra Zaïnal
Concept & Development : Baudouin d'Aumeries
Co-Development & Prog : Marc-Olivier Méhu
Technical & hardware support : Manuel Goepfert

Contact : metmap@orbifly.com




SOURCES & CREDITS :

   NOAA